Time;durP1;ratioP1;P1;durP2;ratioP2;P2;SDS_P1;SDS_P2;PMS_P1;PMS_P2;Temp;Humidity;BMP_temperature;BMP_pressure;BME280_temperature;BME280_humidity;BME280_pressure;Samples;Min_cycle;Max_cycle;Signal;HPM_P1;HPM_P2
2023/12/10 00:02:01;;;;;;;15.52;7.82;;;;;;;2.74;86.80;91876.97;2061361;69;20612;-83
2023/12/10 00:04:27;;;;;;;18.23;8.30;;;;;;;2.95;87.71;91872.97;2062021;69;20244;-90
2023/12/10 00:06:53;;;;;;;13.13;8.10;;;;;;;2.90;87.70;91843.41;2062586;69;20692;-90
2023/12/10 00:09:19;;;;;;;10.10;6.43;;;;;;;3.04;87.28;91833.31;2061333;69;20229;-84
2023/12/10 00:11:45;;;;;;;3.00;2.10;;;;;;;2.86;87.42;91838.25;2060588;69;20153;-82
2023/12/10 00:14:10;;;;;;;9.68;6.10;;;;;;;2.69;89.52;91832.81;2061216;69;20577;-83
2023/12/10 00:16:36;;;;;;;8.38;4.65;;;;;;;2.87;88.78;91828.59;2060699;69;20137;-84
2023/12/10 00:19:02;;;;;;;6.80;3.97;;;;;;;3.09;87.93;91832.31;2061053;69;20141;-83
2023/12/10 00:21:27;;;;;;;6.28;3.10;;;;;;;3.13;88.25;91826.31;2061628;69;20244;-84
2023/12/10 00:23:53;;;;;;;6.68;4.00;;;;;;;2.92;88.96;91835.94;2061708;69;20181;-87
2023/12/10 00:26:18;;;;;;;7.60;4.18;;;;;;;2.77;90.16;91827.84;2063884;69;20214;-81
2023/12/10 00:28:45;;;;;;;6.55;3.90;;;;;;;2.99;89.28;91823.94;2064830;69;20512;-80
2023/12/10 00:31:11;;;;;;;7.38;3.55;;;;;;;3.02;88.44;91816.47;2065104;69;20318;-85
2023/12/10 00:33:37;;;;;;;3.63;2.60;;;;;;;2.66;90.22;91829.16;2064943;69;20623;-80
2023/12/10 00:36:03;;;;;;;5.63;3.42;;;;;;;2.57;93.05;91821.53;2064933;69;20500;-80
2023/12/10 00:38:29;;;;;;;3.63;2.97;;;;;;;2.73;91.11;91833.84;2064936;69;20141;-80
2023/12/10 00:40:54;;;;;;;6.43;3.63;;;;;;;2.51;91.53;91846.78;2065764;69;20223;-83
2023/12/10 00:43:20;;;;;;;6.05;3.65;;;;;;;2.54;92.86;91842.13;2065289;69;20214;-83
2023/12/10 00:45:46;;;;;;;8.05;3.70;;;;;;;2.89;91.04;91845.44;2066111;69;20136;-82
2023/12/10 00:48:12;;;;;;;4.85;3.30;;;;;;;3.04;89.39;91847.97;2065385;69;20156;-82
2023/12/10 00:50:38;;;;;;;2.80;2.40;;;;;;;3.02;89.73;91845.03;2065573;69;20160;-82
2023/12/10 00:53:04;;;;;;;6.85;2.78;;;;;;;2.82;91.93;91879.66;2065477;69;20152;-81
2023/12/10 00:55:30;;;;;;;4.05;2.58;;;;;;;2.96;90.53;91885.53;2065475;69;20179;-81
2023/12/10 00:57:55;;;;;;;2.00;1.58;;;;;;;3.13;89.66;91899.34;2066322;69;20203;-80
2023/12/10 01:00:21;;;;;;;1.70;1.20;;;;;;;3.12;89.24;91888.81;2065196;69;20140;-83
2023/12/10 01:02:49;;;;;;;1.23;1.10;;;;;;;3.09;92.05;91918.50;2065563;69;20207;-80
2023/12/10 01:05:15;;;;;;;1.70;1.20;;;;;;;3.45;91.65;91928.09;2067333;69;20149;-80
2023/12/10 01:07:41;;;;;;;2.45;1.38;;;;;;;3.37;90.62;91936.56;2067017;69;20538;-80
2023/12/10 01:10:08;;;;;;;2.88;1.15;;;;;;;3.30;90.36;91946.53;2066625;69;20145;-79
2023/12/10 01:12:36;;;;;;;2.78;0.95;;;;;;;3.37;89.49;91933.78;2065215;69;20145;-83
2023/12/10 01:15:05;;;;;;;1.00;0.90;;;;;;;3.30;90.14;91943.75;2066606;69;20153;-79
2023/12/10 01:17:31;;;;;;;1.45;0.93;;;;;;;3.21;90.64;91943.72;2066686;69;20203;-80
2023/12/10 01:19:59;;;;;;;1.30;1.10;;;;;;;3.36;91.33;91926.03;2066667;69;20148;-79
2023/12/10 01:22:24;;;;;;;1.15;0.95;;;;;;;3.30;91.22;91940.25;2065621;69;20264;-79
2023/12/10 01:24:52;;;;;;;2.40;1.10;;;;;;;3.45;90.18;91950.38;2064653;69;20217;-81
2023/12/10 01:27:18;;;;;;;0.77;0.77;;;;;;;3.54;88.75;91953.16;2064918;69;20176;-83
2023/12/10 01:29:44;;;;;;;1.75;0.50;;;;;;;3.51;88.56;91950.81;2064771;69;20156;-83
2023/12/10 01:32:10;;;;;;;2.15;1.10;;;;;;;3.16;90.25;91953.06;2064740;69;20136;-82
2023/12/10 01:34:37;;;;;;;3.90;1.30;;;;;;;3.25;91.08;91941.22;2064441;69;20540;-81
2023/12/10 01:37:03;;;;;;;3.72;1.88;;;;;;;3.19;90.59;91913.69;2064279;69;20508;-84
2023/12/10 01:39:30;;;;;;;5.20;2.10;;;;;;;3.01;92.43;91937.34;2063644;69;20189;-80
2023/12/10 01:41:56;;;;;;;3.30;1.75;;;;;;;3.30;90.89;91932.63;2064524;69;20141;-80
2023/12/10 01:44:22;;;;;;;2.53;1.40;;;;;;;3.48;89.29;91926.91;2064361;69;20206;-82
2023/12/10 01:46:50;;;;;;;2.70;1.20;;;;;;;3.49;88.50;91933.97;2064740;69;20168;-80
2023/12/10 01:49:16;;;;;;;1.42;0.80;;;;;;;3.56;88.03;91941.44;2064760;69;20179;-80
2023/12/10 01:51:45;;;;;;;2.55;1.30;;;;;;;3.17;90.15;91949.00;2064154;69;20136;-83
2023/12/10 01:54:22;;;;;;;2.40;1.15;;;;;;;3.31;89.58;91950.03;2064735;69;20153;-82
2023/12/10 01:56:53;;;;;;;1.60;1.00;;;;;;;3.49;88.32;91959.03;2064736;69;20168;-84
2023/12/10 01:59:22;;;;;;;1.67;1.20;;;;;;;3.50;87.99;91974.41;2064201;69;20168;-88
2023/12/10 02:01:48;;;;;;;3.70;1.40;;;;;;;3.48;88.46;91980.56;2064719;69;20157;-88
2023/12/10 02:04:16;;;;;;;3.20;1.25;;;;;;;3.56;87.94;91983.19;2064184;69;20156;-86
2023/12/10 02:06:44;;;;;;;0.80;0.60;;;;;;;3.61;87.25;91993.31;2064098;69;20165;-80
2023/12/10 02:09:12;;;;;;;1.48;0.77;;;;;;;3.57;86.88;92004.13;2064658;69;20153;-84
2023/12/10 02:11:39;;;;;;;2.67;0.70;;;;;;;3.60;87.21;92016.88;2064746;69;20157;-84
2023/12/10 02:14:07;;;;;;;1.90;0.90;;;;;;;3.53;87.01;92026.84;2064712;69;20145;-81
2023/12/10 02:16:32;;;;;;;5.70;2.17;;;;;;;3.11;90.02;92020.81;2064148;69;20145;-80
2023/12/10 02:19:00;;;;;;;3.33;1.60;;;;;;;3.25;89.75;92052.50;2064141;69;20181;-80
2023/12/10 02:21:30;;;;;;;2.50;1.50;;;;;;;3.24;89.35;92053.81;2064642;69;20141;-85
2023/12/10 02:23:58;;;;;;;2.60;1.10;;;;;;;3.44;89.02;92052.59;2064636;69;20133;-82
2023/12/10 02:26:24;;;;;;;1.58;1.10;;;;;;;3.58;88.20;92064.06;2064198;69;20147;-83
2023/12/10 02:28:50;;;;;;;0.90;0.80;;;;;;;3.65;87.26;92079.88;2064720;69;20160;-81
2023/12/10 02:31:18;;;;;;;1.00;0.68;;;;;;;3.61;87.73;92104.63;2064151;69;20168;-83
2023/12/10 02:33:44;;;;;;;2.60;1.10;;;;;;;3.34;88.69;92090.03;2064470;69;20148;-81
2023/12/10 02:36:09;;;;;;;1.77;1.00;;;;;;;3.50;88.05;92099.63;2064762;69;20157;-83
2023/12/10 02:38:35;;;;;;;1.63;1.10;;;;;;;3.61;87.83;92115.75;2064441;69;20150;-82
2023/12/10 02:41:01;;;;;;;2.17;1.10;;;;;;;3.33;88.65;92111.53;2064383;69;20149;-84
2023/12/10 02:43:27;;;;;;;1.20;1.10;;;;;;;3.41;89.40;92106.59;2064610;69;20207;-83
2023/12/10 02:45:52;;;;;;;0.77;0.60;;;;;;;3.41;89.29;92108.66;2064182;69;20515;-84
2023/12/10 02:48:21;;;;;;;2.67;1.35;;;;;;;3.35;90.29;92122.84;2064675;69;20172;-81
2023/12/10 02:50:50;;;;;;;3.08;1.08;;;;;;;3.74;88.63;92131.34;2064864;69;20145;-88
2023/12/10 02:53:17;;;;;;;1.08;0.93;;;;;;;3.67;87.84;92121.81;2064660;69;20183;-84
2023/12/10 02:55:43;;;;;;;1.88;0.45;;;;;;;3.73;87.55;92110.41;2065069;69;20161;-83
2023/12/10 02:58:09;;;;;;;1.13;0.60;;;;;;;3.83;87.39;92114.69;2064346;69;20693;-89
2023/12/10 03:00:36;;;;;;;5.07;2.50;;;;;;;3.89;86.78;92124.81;2064381;69;20172;-85
2023/12/10 03:03:02;;;;;;;5.50;2.08;;;;;;;3.82;87.89;92124.34;2064037;69;20133;-84
2023/12/10 03:05:27;;;;;;;1.52;0.90;;;;;;;3.73;88.02;92141.03;2064476;69;20254;-85
2023/12/10 03:07:55;;;;;;;0.80;0.40;;;;;;;3.87;86.85;92135.81;2064528;69;20137;-84
2023/12/10 03:10:20;;;;;;;0.20;0.20;;;;;;;3.75;87.72;92132.81;2064589;69;20156;-82
2023/12/10 03:12:46;;;;;;;1.95;0.30;;;;;;;3.82;87.01;92137.53;2064643;69;20145;-86
2023/12/10 03:15:12;;;;;;;0.80;0.60;;;;;;;3.91;86.89;92150.03;2064597;69;20145;-85
2023/12/10 03:17:38;;;;;;;1.00;0.70;;;;;;;3.91;86.31;92145.19;2064408;69;20184;-82
2023/12/10 03:20:04;;;;;;;0.50;0.40;;;;;;;3.93;86.30;92161.31;2063758;69;20169;-86
2023/12/10 03:22:30;;;;;;;0.68;0.30;;;;;;;3.78;86.91;92170.63;2064423;69;20149;-80
2023/12/10 03:24:57;;;;;;;0.60;0.30;;;;;;;3.91;86.06;92175.81;2064608;69;20155;-87
2023/12/10 03:27:22;;;;;;;0.65;0.28;;;;;;;3.90;85.97;92171.56;2064564;69;20145;-87
2023/12/10 03:29:48;;;;;;;0.35;0.20;;;;;;;3.86;86.76;92178.88;2064012;69;20517;-88
2023/12/10 03:32:15;;;;;;;1.55;1.00;;;;;;;3.60;88.36;92199.84;2064557;69;20148;-87
2023/12/10 03:34:40;;;;;;;1.63;1.10;;;;;;;3.82;86.72;92204.38;2064461;69;20179;-89
2023/12/10 03:37:07;;;;;;;1.60;1.10;;;;;;;3.85;86.54;92225.50;2064577;69;20541;-87
2023/12/10 03:39:33;;;;;;;1.40;1.10;;;;;;;3.89;86.43;92203.50;2063953;69;20194;-87
2023/12/10 03:41:58;;;;;;;1.73;0.70;;;;;;;3.82;87.03;92201.59;2064435;69;20153;-81
2023/12/10 03:44:24;;;;;;;0.88;0.50;;;;;;;3.84;88.00;92207.28;2066167;69;20177;-80
2023/12/10 03:46:50;;;;;;;1.05;0.88;;;;;;;3.60;88.21;92194.28;2065974;69;20670;-78
2023/12/10 03:49:16;;;;;;;1.77;1.30;;;;;;;3.50;90.48;92181.06;2065469;69;20239;-79
2023/12/10 03:51:41;;;;;;;3.42;0.90;;;;;;;3.61;90.50;92188.13;2065028;69;20141;-82
2023/12/10 03:54:08;;;;;;;1.15;0.85;;;;;;;3.80;88.71;92201.41;2065540;69;20175;-80
2023/12/10 03:56:34;;;;;;;0.68;0.60;;;;;;;3.79;88.02;92194.38;2064829;69;20168;-87
2023/12/10 03:59:00;;;;;;;1.10;0.40;;;;;;;3.83;87.30;92203.78;2064528;69;20195;-82
2023/12/10 04:01:26;;;;;;;1.45;0.20;;;;;;;3.91;86.60;92202.94;2064534;69;20631;-85
2023/12/10 04:03:51;;;;;;;1.10;0.30;;;;;;;3.70;87.21;92220.84;2064006;69;20151;-84
2023/12/10 04:06:17;;;;;;;0.43;0.40;;;;;;;3.69;87.89;92210.31;2064484;69;20588;-81
2023/12/10 04:08:43;;;;;;;0.30;0.30;;;;;;;3.68;88.36;92194.94;2064464;69;20152;-82
2023/12/10 04:11:09;;;;;;;1.42;0.40;;;;;;;3.75;88.07;92200.38;2063726;69;20169;-88
2023/12/10 04:13:35;;;;;;;1.73;0.95;;;;;;;3.67;88.92;92208.09;2064147;69;20221;-88
2023/12/10 04:16:01;;;;;;;0.98;0.40;;;;;;;3.79;87.84;92216.66;2064363;69;20161;-87
2023/12/10 04:18:29;;;;;;;1.17;0.40;;;;;;;3.76;87.65;92201.84;2064518;69;20144;-88
2023/12/10 04:20:55;;;;;;;0.68;0.40;;;;;;;3.80;87.25;92193.06;2063818;69;20153;-86
2023/12/10 04:23:22;;;;;;;3.35;0.60;;;;;;;3.87;86.57;92191.50;2064282;69;20149;-89
2023/12/10 04:25:48;;;;;;;1.95;0.60;;;;;;;3.91;86.20;92212.03;2064437;69;20179;-88
2023/12/10 04:28:14;;;;;;;0.95;0.40;;;;;;;3.72;87.01;92215.47;2064355;69;20615;-89
2023/12/10 04:30:39;;;;;;;3.58;0.40;;;;;;;3.76;87.49;92206.69;2064384;69;20263;-89
2023/12/10 04:33:05;;;;;;;0.47;0.45;;;;;;;3.70;88.02;92195.06;2063942;69;20739;-91
2023/12/10 04:35:31;;;;;;;1.25;0.40;;;;;;;3.64;88.44;92205.75;2064014;69;20647;-90
2023/12/10 04:37:57;;;;;;;0.80;0.60;;;;;;;3.52;89.70;92228.50;2064365;69;20621;-87
2023/12/10 04:40:23;;;;;;;0.52;0.52;;;;;;;3.81;87.82;92202.91;2064169;69;20129;-87
2023/12/10 04:42:49;;;;;;;1.85;0.70;;;;;;;3.82;87.12;92205.09;2064135;69;20222;-88
2023/12/10 04:45:16;;;;;;;0.73;0.50;;;;;;;3.76;86.70;92212.25;2063807;69;20145;-84
2023/12/10 04:47:47;;;;;;;0.90;0.40;;;;;;;3.74;86.77;92206.53;2064422;69;20175;-86
2023/12/10 04:50:12;;;;;;;5.35;0.65;;;;;;;3.70;86.87;92206.19;2064409;69;20180;-79
2023/12/10 04:52:38;;;;;;;1.42;0.50;;;;;;;3.49;87.35;92206.69;2064293;69;20523;-79
2023/12/10 04:55:04;;;;;;;2.30;0.60;;;;;;;3.56;87.55;92203.06;2064199;69;20133;-81
2023/12/10 04:57:30;;;;;;;1.98;0.50;;;;;;;3.69;87.13;92199.16;2061113;69;20179;-83
2023/12/10 04:59:55;;;;;;;2.83;0.40;;;;;;;3.64;87.13;92186.25;2064297;69;20185;-82
2023/12/10 05:02:21;;;;;;;1.88;0.57;;;;;;;3.69;87.19;92199.91;2064377;69;20168;-82
2023/12/10 05:04:46;;;;;;;2.22;0.90;;;;;;;3.54;88.19;92217.56;2064247;69;20508;-85
2023/12/10 05:07:12;;;;;;;1.85;1.20;;;;;;;3.70;87.43;92245.91;2064682;69;20662;-78
2023/12/10 05:09:38;;;;;;;1.33;0.80;;;;;;;3.68;87.53;92245.75;2064283;69;20240;-85
2023/12/10 05:12:06;;;;;;;0.65;0.65;;;;;;;3.74;86.95;92257.38;2064333;69;20619;-81
2023/12/10 05:14:32;;;;;;;1.20;0.88;;;;;;;3.65;87.08;92266.41;2064957;69;20599;-83
2023/12/10 05:16:57;;;;;;;1.50;1.10;;;;;;;3.61;87.85;92268.84;2064826;69;20153;-81
2023/12/10 05:19:23;;;;;;;2.17;0.90;;;;;;;3.61;88.39;92270.91;2064890;69;20180;-80
2023/12/10 05:21:49;;;;;;;1.00;0.88;;;;;;;3.55;88.67;92287.88;2064944;69;20145;-80
2023/12/10 05:24:14;;;;;;;2.67;0.70;;;;;;;3.54;88.12;92283.63;2064141;69;20607;-80
2023/12/10 05:26:40;;;;;;;2.60;0.60;;;;;;;3.56;89.26;92267.06;2064917;69;20581;-80
2023/12/10 05:29:05;;;;;;;1.73;0.50;;;;;;;3.49;89.36;92273.47;2064708;69;20149;-80
2023/12/10 05:31:32;;;;;;;2.72;0.80;;;;;;;3.36;89.80;92296.09;2064784;69;20133;-83
2023/12/10 05:33:58;;;;;;;1.50;0.95;;;;;;;3.53;89.16;92298.84;2064852;69;20161;-82
2023/12/10 05:36:23;;;;;;;2.22;0.90;;;;;;;3.67;88.31;92288.84;2064917;69;20153;-78
2023/12/10 05:38:49;;;;;;;1.65;0.50;;;;;;;3.59;89.16;92282.63;2064124;69;20153;-81
2023/12/10 05:41:15;;;;;;;1.95;0.45;;;;;;;3.18;89.50;92282.19;2064299;69;20153;-81
2023/12/10 05:43:40;;;;;;;0.70;0.60;;;;;;;3.37;91.04;92294.75;2064832;69;20219;-82
2023/12/10 05:46:06;;;;;;;1.88;1.10;;;;;;;3.55;89.42;92294.16;2064276;69;20612;-80
2023/12/10 05:48:33;;;;;;;2.55;0.60;;;;;;;3.67;88.08;92302.75;2064822;69;20125;-84
2023/12/10 05:50:58;;;;;;;1.00;0.77;;;;;;;3.65;87.68;92307.41;2064767;69;20171;-79
2023/12/10 05:53:24;;;;;;;2.55;0.40;;;;;;;3.56;88.02;92298.41;2064692;69;20141;-79
2023/12/10 05:55:50;;;;;;;1.40;0.52;;;;;;;3.57;87.77;92296.38;2064771;69;20149;-80
2023/12/10 05:58:16;;;;;;;1.95;0.70;;;;;;;3.48;88.83;92297.03;2061446;69;20585;-81
2023/12/10 06:00:41;;;;;;;1.55;0.47;;;;;;;3.59;88.07;92293.75;2064762;69;20296;-88
2023/12/10 06:03:07;;;;;;;4.72;0.70;;;;;;;3.60;87.62;92311.19;2064825;69;20191;-88
2023/12/10 06:05:33;;;;;;;8.70;4.20;;;;;;;3.63;87.20;92308.00;2064911;69;20304;-87
2023/12/10 06:07:58;;;;;;;8.93;3.00;;;;;;;3.48;88.36;92310.94;2064793;69;20145;-79
2023/12/10 06:10:24;;;;;;;5.22;2.00;;;;;;;3.59;87.98;92295.81;2064886;69;20203;-79
2023/12/10 06:12:50;;;;;;;3.38;1.00;;;;;;;3.48;87.53;92299.81;2064915;69;20145;-81
2023/12/10 06:15:16;;;;;;;1.40;0.70;;;;;;;3.43;87.58;92301.53;2064622;69;20153;-80
2023/12/10 06:17:41;;;;;;;2.08;0.70;;;;;;;3.48;88.02;92324.88;2064762;69;20160;-83
2023/12/10 06:20:08;;;;;;;4.80;2.53;;;;;;;2.98;89.17;92317.44;2064282;69;20180;-80
2023/12/10 06:22:34;;;;;;;6.10;2.30;;;;;;;2.98;90.89;92323.00;2064569;69;20214;-80
2023/12/10 06:25:00;;;;;;;3.53;1.75;;;;;;;3.25;89.36;92320.31;2064741;69;20149;-81
2023/12/10 06:27:25;;;;;;;1.98;0.98;;;;;;;3.21;88.46;92330.38;2064202;69;20137;-82
2023/12/10 06:29:51;;;;;;;1.52;0.70;;;;;;;3.18;88.51;92351.72;2064192;69;20152;-80
2023/12/10 06:32:17;;;;;;;1.23;0.50;;;;;;;3.12;89.28;92351.22;2064826;69;20157;-80
2023/12/10 06:34:43;;;;;;;3.42;0.70;;;;;;;3.16;88.63;92354.34;2064706;69;20141;-79
2023/12/10 06:37:09;;;;;;;3.15;0.73;;;;;;;3.20;88.55;92381.72;2064666;69;20666;-81
2023/12/10 06:39:35;;;;;;;2.40;0.57;;;;;;;3.16;87.96;92386.97;2064631;69;20141;-80
2023/12/10 06:42:01;;;;;;;1.23;0.75;;;;;;;3.20;87.68;92374.13;2064690;69;20266;-79
2023/12/10 06:44:27;;;;;;;3.92;0.80;;;;;;;3.14;87.41;92386.81;2064160;69;20700;-79
2023/12/10 06:46:52;;;;;;;75.28;23.75;;;;;;;2.44;91.04;92344.22;2064725;69;20166;-80
2023/12/10 06:49:18;;;;;;;14.18;5.68;;;;;;;2.63;93.81;92377.78;2064702;69;20211;-82
2023/12/10 06:51:44;;;;;;;20.65;7.82;;;;;;;2.71;92.45;92381.25;2064791;69;20153;-80
2023/12/10 06:54:10;;;;;;;18.27;8.77;;;;;;;2.58;92.84;92375.97;2064667;69;20528;-80
2023/12/10 06:56:40;;;;;;;11.98;5.15;;;;;;;2.84;91.82;92383.00;2065566;69;20152;-80
2023/12/10 06:59:09;;;;;;;4.55;1.65;;;;;;;2.86;90.66;92391.50;2066033;69;20236;-79
2023/12/10 07:01:37;;;;;;;2.63;1.33;;;;;;;2.86;89.96;92385.19;2066221;69;20133;-79
2023/12/10 07:04:07;;;;;;;2.17;1.27;;;;;;;2.82;89.85;92398.75;2065282;69;20215;-81
2023/12/10 07:06:33;;;;;;;4.00;1.20;;;;;;;2.96;89.52;92414.56;2065544;69;20149;-80
2023/12/10 07:08:59;;;;;;;3.15;1.10;;;;;;;2.95;89.44;92418.66;2063244;69;20235;-79
2023/12/10 07:11:24;;;;;;;3.83;1.20;;;;;;;2.95;89.29;92427.00;2063112;69;20173;-81
2023/12/10 07:13:53;;;;;;;3.45;0.88;;;;;;;3.05;88.69;92422.28;2063013;69;20153;-81
2023/12/10 07:16:19;;;;;;;23.42;11.68;;;;;;;3.09;88.74;92435.06;2061302;69;20203;-81
2023/12/10 07:18:45;;;;;;;43.33;19.63;;;;;;;2.98;89.06;92439.06;2062291;69;20584;-79
2023/12/10 07:21:12;;;;;;;13.68;6.93;;;;;;;3.04;88.30;92445.84;2064048;69;20160;-80
2023/12/10 07:23:37;;;;;;;5.70;2.38;;;;;;;3.04;87.45;92451.41;2064709;69;20228;-81
2023/12/10 07:26:04;;;;;;;7.68;1.15;;;;;;;3.02;87.75;92439.38;2063726;69;20248;-81
2023/12/10 07:28:30;;;;;;;2.65;1.10;;;;;;;2.70;89.17;92454.06;2061675;69;20165;-85
2023/12/10 07:30:56;;;;;;;11.20;5.30;;;;;;;2.59;92.13;92476.75;2063519;69;20148;-83
2023/12/10 07:33:22;;;;;;;9.55;3.65;;;;;;;2.74;90.62;92462.75;2063692;69;20204;-87
2023/12/10 07:35:48;;;;;;;12.77;7.80;;;;;;;2.86;90.76;92465.81;2064364;69;20145;-86
2023/12/10 07:38:14;;;;;;;5.78;3.85;;;;;;;2.82;90.50;92471.03;2063613;69;20157;-86
2023/12/10 07:40:40;;;;;;;7.80;1.83;;;;;;;2.98;89.28;92467.59;2061001;69;20146;-86
2023/12/10 07:43:07;;;;;;;6.10;3.80;;;;;;;2.85;89.70;92462.31;2061417;69;20152;-88
2023/12/10 07:45:32;;;;;;;10.95;4.65;;;;;;;2.65;91.29;92477.25;2061009;69;20578;-89
2023/12/10 07:47:59;;;;;;;54.40;28.75;;;;;;;2.95;91.52;92493.75;2061311;69;20697;-81
2023/12/10 07:50:25;;;;;;;17.83;9.18;;;;;;;3.23;90.50;92481.50;2061448;69;20611;-84
2023/12/10 07:52:50;;;;;;;10.95;2.15;;;;;;;3.39;89.74;92496.03;2061115;69;20152;-85
2023/12/10 07:55:17;;;;;;;5.43;2.10;;;;;;;3.48;88.88;92483.50;2061394;69;20589;-84
2023/12/10 07:57:44;;;;;;;3.47;1.10;;;;;;;3.53;88.47;92497.19;2060778;69;20599;-82
2023/12/10 08:00:11;;;;;;;4.53;1.02;;;;;;;3.38;89.25;92508.44;2061255;69;20152;-85
2023/12/10 08:02:39;;;;;;;5.97;2.70;;;;;;;3.25;89.08;92528.97;2060070;69;20151;-84
2023/12/10 08:05:05;;;;;;;7.90;3.30;;;;;;;3.39;88.88;92523.84;2061246;69;20149;-82
2023/12/10 08:07:31;;;;;;;7.32;2.97;;;;;;;3.58;88.18;92520.53;2061212;69;20587;-89
2023/12/10 08:09:58;;;;;;;4.35;1.80;;;;;;;3.55;86.70;92519.63;2060691;69;20610;-91
2023/12/10 08:12:23;;;;;;;2.85;1.90;;;;;;;4.02;86.53;92533.84;2060660;69;20157;-90
2023/12/10 08:14:49;;;;;;;9.07;3.28;;;;;;;3.95;86.85;92541.00;2061173;69;20484;-92
2023/12/10 08:17:15;;;;;;;7.85;3.47;;;;;;;3.90;86.72;92544.00;2061216;69;20160;-87
2023/12/10 08:19:40;;;;;;;6.00;2.85;;;;;;;4.04;86.65;92536.81;2061338;69;20177;-90
2023/12/10 08:22:07;;;;;;;4.18;2.38;;;;;;;4.29;86.16;92556.97;2061136;69;20157;-91
2023/12/10 08:24:32;;;;;;;7.45;2.63;;;;;;;4.36;85.73;92560.28;2061138;69;20157;-92
2023/12/10 08:26:59;;;;;;;6.43;3.25;;;;;;;4.42;85.74;92563.53;2061208;69;20237;-82
2023/12/10 08:29:25;;;;;;;8.27;2.65;;;;;;;4.25;85.54;92576.16;2061225;69;20248;-91
2023/12/10 08:31:51;;;;;;;5.25;2.15;;;;;;;4.34;86.18;92571.97;2061300;69;20587;-81
2023/12/10 08:34:19;;;;;;;4.65;2.05;;;;;;;4.49;85.45;92582.97;2057829;69;20683;-87
2023/12/10 08:36:45;;;;;;;3.60;1.40;;;;;;;4.41;84.83;92556.50;2057757;69;20149;-82
2023/12/10 08:39:10;;;;;;;5.72;2.25;;;;;;;4.27;85.17;92542.88;2061803;69;20145;-86
2023/12/10 08:41:37;;;;;;;6.65;2.75;;;;;;;4.24;84.71;92541.25;2061758;69;20141;-93
2023/12/10 08:44:03;;;;;;;6.05;1.92;;;;;;;4.08;85.68;92542.72;2061874;69;20602;-85
2023/12/10 08:46:29;;;;;;;6.53;2.67;;;;;;;4.29;86.94;92545.09;2061731;69;20169;-90
2023/12/10 08:48:55;;;;;;;9.02;4.95;;;;;;;4.51;85.28;92544.09;2061814;69;20148;-87
2023/12/10 08:51:21;;;;;;;6.47;3.72;;;;;;;4.70;84.23;92551.13;2061813;69;20133;-78
2023/12/10 08:53:47;;;;;;;7.70;3.03;;;;;;;4.80;84.20;92551.91;2061647;69;20149;-83
2023/12/10 08:56:13;;;;;;;6.40;3.05;;;;;;;4.82;83.98;92557.69;2061597;69;20685;-79
2023/12/10 08:58:38;;;;;;;9.30;4.80;;;;;;;4.82;84.40;92558.41;2061233;69;20533;-81
2023/12/10 09:01:06;;;;;;;11.98;4.88;;;;;;;4.76;84.68;92559.97;2061098;69;20302;-79
2023/12/10 09:03:32;;;;;;;13.07;6.05;;;;;;;4.70;84.62;92562.28;2061709;69;20173;-82
2023/12/10 09:06:00;;;;;;;8.95;4.80;;;;;;;4.71;84.29;92555.38;2061639;69;20508;-84
2023/12/10 09:08:26;;;;;;;11.20;5.50;;;;;;;4.33;84.15;92568.44;2061525;69;20161;-80
2023/12/10 09:10:54;;;;;;;11.65;6.07;;;;;;;4.65;84.75;92574.44;2061590;69;20152;-81
2023/12/10 09:13:19;;;;;;;8.02;4.47;;;;;;;5.17;83.24;92566.69;2061668;69;20148;-81
2023/12/10 09:15:45;;;;;;;6.68;3.45;;;;;;;5.34;82.85;92569.41;2058220;69;20243;-80
2023/12/10 09:18:11;;;;;;;5.05;3.33;;;;;;;4.72;82.50;92574.34;2061038;69;20515;-81
2023/12/10 09:20:36;;;;;;;13.88;6.38;;;;;;;4.53;83.36;92588.84;2061514;69;20457;-80
2023/12/10 09:23:02;;;;;;;14.52;7.28;;;;;;;5.11;82.72;92585.75;2060899;69;20299;-79
2023/12/10 09:25:28;;;;;;;13.50;6.35;;;;;;;5.47;81.53;92595.50;2061459;69;20142;-79
2023/12/10 09:27:53;;;;;;;11.38;4.80;;;;;;;5.22;81.85;92595.66;2061599;69;20321;-78
2023/12/10 09:30:19;;;;;;;10.05;5.07;;;;;;;5.34;82.19;92577.06;2061533;69;20185;-81
2023/12/10 09:32:46;;;;;;;10.30;5.20;;;;;;;5.03;81.38;92580.25;2061552;69;20485;-80
2023/12/10 09:35:13;;;;;;;10.07;5.40;;;;;;;4.72;82.19;92576.38;2058256;69;20137;-79
2023/12/10 09:37:39;;;;;;;15.07;6.72;;;;;;;5.39;81.92;92583.69;2061328;69;20212;-78
2023/12/10 09:40:05;;;;;;;13.98;6.65;;;;;;;5.93;81.07;92584.38;2061562;69;20236;-80
2023/12/10 09:42:30;;;;;;;8.32;4.63;;;;;;;6.05;80.48;92582.50;2061474;69;20141;-82
2023/12/10 09:44:56;;;;;;;12.52;4.15;;;;;;;6.32;79.28;92576.81;2061605;69;20149;-82
2023/12/10 09:47:25;;;;;;;7.90;4.45;;;;;;;5.99;79.89;92570.13;2058329;69;20141;-79
2023/12/10 09:49:54;;;;;;;12.23;4.40;;;;;;;6.18;79.58;92569.44;2061455;69;20673;-81
2023/12/10 09:52:21;;;;;;;14.95;7.22;;;;;;;6.24;78.69;92573.44;2061767;69;20160;-81
2023/12/10 09:54:48;;;;;;;10.52;6.07;;;;;;;6.21;78.67;92596.22;2061409;69;20144;-84
2023/12/10 09:57:13;;;;;;;11.38;5.40;;;;;;;6.35;78.61;92598.00;2061491;69;20272;-86
2023/12/10 09:59:40;;;;;;;11.55;5.72;;;;;;;6.66;77.64;92597.47;2061408;69;20197;-87
2023/12/10 10:02:06;;;;;;;11.48;6.90;;;;;;;6.73;77.91;92607.75;2061402;69;20149;-86
2023/12/10 10:04:32;;;;;;;8.93;5.00;;;;;;;6.73;78.00;92607.00;2061446;69;20142;-89
2023/12/10 10:06:58;;;;;;;11.63;5.07;;;;;;;6.75;78.08;92604.38;2061008;69;20148;-88
2023/12/10 10:09:23;;;;;;;8.68;4.70;;;;;;;6.87;77.75;92619.25;2061465;69;20154;-84
2023/12/10 10:11:50;;;;;;;11.65;5.80;;;;;;;6.71;77.69;92618.81;2061129;69;20164;-85
2023/12/10 10:14:21;;;;;;;11.57;5.47;;;;;;;6.56;77.24;92614.25;2061690;69;20255;-82
2023/12/10 10:16:48;;;;;;;11.82;4.13;;;;;;;6.56;77.12;92627.50;2060930;69;20156;-85
2023/12/10 10:19:15;;;;;;;8.30;4.35;;;;;;;6.71;75.57;92630.00;2061490;69;20156;-86
2023/12/10 10:21:44;;;;;;;13.13;4.57;;;;;;;6.86;75.88;92629.69;2061413;69;20169;-80
2023/12/10 10:24:11;;;;;;;7.78;4.15;;;;;;;7.37;75.02;92627.00;2061320;69;20145;-80
2023/12/10 10:26:38;;;;;;;9.50;4.00;;;;;;;8.27;74.01;92608.72;2061379;69;20153;-84
2023/12/10 10:29:05;;;;;;;11.38;6.05;;;;;;;8.90;70.96;92624.16;2060942;69;20157;-85
2023/12/10 10:31:34;;;;;;;16.17;7.35;;;;;;;7.90;71.52;92625.84;2061445;69;20145;-87
2023/12/10 10:34:05;;;;;;;15.80;6.75;;;;;;;8.71;71.87;92615.13;2061445;69;20613;-83
2023/12/10 10:36:31;;;;;;;10.77;5.30;;;;;;;11.00;69.95;92624.34;2061540;69;20609;-84
2023/12/10 10:38:58;;;;;;;9.75;4.82;;;;;;;11.01;66.92;92626.53;2061298;69;20241;-84
2023/12/10 10:41:25;;;;;;;13.80;6.57;;;;;;;12.54;63.39;92625.75;2060999;69;20137;-80
2023/12/10 10:43:51;;;;;;;14.80;7.10;;;;;;;10.82;63.71;92633.19;2061359;69;20149;-83
2023/12/10 10:46:20;;;;;;;11.15;5.43;;;;;;;10.46;63.79;92636.66;2061455;69;20156;-84
2023/12/10 10:48:51;;;;;;;10.82;5.32;;;;;;;10.28;64.98;92611.69;2061425;69;20145;-85
2023/12/10 10:51:27;;;;;;;13.13;6.22;;;;;;;10.56;62.42;92623.19;2061492;69;20228;-81
2023/12/10 10:53:58;;;;;;;19.48;9.65;;;;;;;8.31;66.15;92631.44;2061331;69;20137;-80
2023/12/10 10:56:28;;;;;;;13.05;4.90;;;;;;;9.30;67.17;92638.59;2058082;69;20137;-81
2023/12/10 10:58:55;;;;;;;8.65;4.15;;;;;;;11.61;63.22;92630.59;2061260;69;20173;-79
2023/12/10 11:01:45;;;;;;;15.75;4.97;;;;;;;10.62;61.67;92624.25;2060657;69;20165;-81
2023/12/10 11:04:12;;;;;;;6.75;3.20;;;;;;;10.12;62.77;92636.72;2060968;69;20138;-79
2023/12/10 11:06:40;;;;;;;8.13;3.35;;;;;;;10.42;62.10;92617.44;2061395;69;20141;-81
2023/12/10 11:09:06;;;;;;;6.18;2.92;;;;;;;10.23;62.11;92638.09;2061310;69;20160;-82
2023/12/10 11:11:40;;;;;;;8.32;3.20;;;;;;;10.44;62.42;92640.06;2060802;69;20599;-86
2023/12/10 11:14:20;;;;;;;13.68;9.98;;;;;;;9.85;63.96;92642.06;2061798;69;20133;-78
2023/12/10 11:17:09;;;;;;;8.90;4.55;;;;;;;9.24;64.30;92636.13;2060988;69;20263;-79
2023/12/10 11:19:40;;;;;;;10.85;7.10;;;;;;;9.12;66.32;92655.75;2061352;69;20640;-80
2023/12/10 11:22:05;;;;;;;7.07;3.10;;;;;;;9.26;65.58;92655.22;2061319;69;20149;-85
2023/12/10 11:24:31;;;;;;;8.93;4.53;;;;;;;8.61;65.89;92657.28;2057927;69;20134;-80
2023/12/10 11:26:59;;;;;;;8.15;5.43;;;;;;;8.78;66.96;92661.91;2058040;69;20142;-79
2023/12/10 11:29:25;;;;;;;7.22;3.72;;;;;;;8.54;68.59;92663.81;2061318;69;20137;-81
2023/12/10 11:31:50;;;;;;;7.00;3.55;;;;;;;8.64;68.51;92661.69;2060752;69;20152;-84
2023/12/10 11:34:16;;;;;;;4.95;3.55;;;;;;;8.70;68.50;92667.69;2061372;69;20508;-81
2023/12/10 11:36:48;;;;;;;15.27;9.27;;;;;;;8.12;69.72;92665.16;2061278;69;20630;-81